Time;durP1;ratioP1;P1;durP2;ratioP2;P2;SDS_P1;SDS_P2;PMS_P1;PMS_P2;Temp;Humidity;BMP_temperature;BMP_pressure;BME280_temperature;BME280_humidity;BME280_pressure;Samples;Min_cycle;Max_cycle;Signal;HPM_P1;HPM_P2
2022/08/06 00:01:51;;;;;;;3.50;2.50;;;26.50;61.50;;;;;;4985629;28;20397;-66
2022/08/06 00:04:17;;;;;;;3.15;2.50;;;26.50;61.40;;;;;;4984364;28;20400;-66
2022/08/06 00:06:43;;;;;;;2.83;2.60;;;26.50;61.40;;;;;;4998604;28;20399;-66
2022/08/06 00:09:10;;;;;;;2.80;2.50;;;26.50;61.50;;;;;;5000179;28;20406;-66
2022/08/06 00:11:36;;;;;;;3.03;2.50;;;26.50;61.50;;;;;;4983525;28;20453;-66
2022/08/06 00:14:02;;;;;;;2.67;2.47;;;26.50;61.50;;;;;;4983334;28;20442;-68
2022/08/06 00:16:28;;;;;;;3.50;2.20;;;26.50;61.40;;;;;;4985810;28;20507;-67
2022/08/06 00:18:53;;;;;;;2.67;2.47;;;26.50;61.50;;;;;;4984519;28;20422;-67
2022/08/06 00:21:19;;;;;;;3.47;2.80;;;26.50;61.50;;;;;;4983788;28;20404;-70
2022/08/06 00:23:44;;;;;;;3.47;2.80;;;26.50;61.60;;;;;;4983076;28;20392;-66
2022/08/06 00:26:10;;;;;;;2.78;2.40;;;26.50;61.60;;;;;;4984502;28;20399;-71
2022/08/06 00:28:36;;;;;;;4.32;2.80;;;26.50;61.70;;;;;;4984223;28;20498;-66
2022/08/06 00:31:04;;;;;;;3.10;2.50;;;26.50;61.70;;;;;;4983116;28;20395;-66
2022/08/06 00:33:30;;;;;;;2.70;2.38;;;26.50;61.90;;;;;;4984994;28;20414;-66
2022/08/06 00:35:55;;;;;;;2.70;2.50;;;26.50;61.90;;;;;;4983661;28;20800;-66
2022/08/06 00:38:21;;;;;;;3.10;2.60;;;26.50;61.90;;;;;;5002158;28;20435;-66
2022/08/06 00:40:48;;;;;;;2.60;2.40;;;26.50;61.90;;;;;;5003160;28;20455;-67
2022/08/06 00:43:14;;;;;;;3.08;2.40;;;26.50;61.80;;;;;;5002906;28;20916;-67
2022/08/06 00:45:39;;;;;;;3.30;2.63;;;26.50;61.90;;;;;;4986540;28;20405;-66
2022/08/06 00:48:05;;;;;;;3.17;2.60;;;26.50;61.90;;;;;;5002205;28;20391;-66
2022/08/06 00:50:32;;;;;;;2.85;2.65;;;26.50;61.90;;;;;;5003324;28;20475;-66
2022/08/06 00:53:00;;;;;;;3.13;2.60;;;26.50;61.90;;;;;;5001610;28;20421;-66
2022/08/06 00:55:26;;;;;;;2.70;2.50;;;26.40;61.70;;;;;;5004141;28;20388;-66
2022/08/06 00:57:52;;;;;;;3.85;2.63;;;26.50;61.90;;;;;;4984900;28;20403;-66
2022/08/06 01:00:17;;;;;;;2.80;2.30;;;26.50;62.00;;;;;;5001760;28;20416;-66
2022/08/06 01:02:43;;;;;;;4.13;2.38;;;26.50;62.00;;;;;;5003842;28;20907;-67
2022/08/06 01:05:09;;;;;;;3.65;2.40;;;26.50;62.00;;;;;;5001545;28;20406;-66
2022/08/06 01:07:34;;;;;;;3.00;2.63;;;26.50;62.00;;;;;;5000632;28;20403;-66
2022/08/06 01:10:00;;;;;;;3.60;2.42;;;26.40;61.90;;;;;;5002113;28;20393;-70
2022/08/06 01:12:27;;;;;;;3.10;2.35;;;26.40;62.00;;;;;;5003301;28;20463;-67
2022/08/06 01:14:52;;;;;;;3.30;2.53;;;26.50;62.10;;;;;;5002479;28;20441;-68
2022/08/06 01:17:27;;;;;;;3.03;2.50;;;26.40;62.10;;;;;;5004597;28;20428;-66
2022/08/06 01:20:06;;;;;;;2.63;2.42;;;26.40;62.20;;;;;;5003821;28;20400;-67
2022/08/06 01:23:00;;;;;;;2.70;2.50;;;26.50;62.20;;;;;;5003334;28;20393;-67
2022/08/06 01:25:47;;;;;;;3.20;2.50;;;26.50;62.10;;;;;;5004122;28;20521;-67
2022/08/06 01:28:26;;;;;;;3.00;2.50;;;26.50;62.10;;;;;;5001990;28;20405;-66
2022/08/06 01:31:01;;;;;;;2.97;2.42;;;26.50;62.20;;;;;;4983385;28;20389;-67
2022/08/06 01:33:33;;;;;;;3.08;2.50;;;26.40;62.10;;;;;;5003425;28;20459;-67
2022/08/06 01:36:03;;;;;;;3.40;2.50;;;26.50;62.30;;;;;;4985000;28;20413;-66
2022/08/06 01:38:40;;;;;;;2.95;2.60;;;26.40;62.20;;;;;;5001690;28;20409;-66
2022/08/06 01:41:11;;;;;;;2.90;2.60;;;26.40;62.20;;;;;;5003255;28;20431;-66
2022/08/06 01:43:39;;;;;;;2.90;2.53;;;26.40;62.20;;;;;;5002329;28;20434;-67
2022/08/06 01:46:08;;;;;;;3.28;2.67;;;26.40;62.20;;;;;;5003809;28;20418;-66
2022/08/06 01:48:37;;;;;;;4.05;2.60;;;26.40;62.20;;;;;;5000543;28;20412;-66
2022/08/06 01:51:07;;;;;;;3.22;2.72;;;26.40;62.10;;;;;;5003063;28;20389;-67
2022/08/06 01:53:36;;;;;;;3.00;2.70;;;26.40;62.30;;;;;;5000239;28;20531;-67
2022/08/06 01:56:04;;;;;;;3.67;2.67;;;26.40;62.30;;;;;;5002836;28;20406;-67
2022/08/06 01:58:38;;;;;;;2.92;2.60;;;26.40;62.40;;;;;;5002561;28;20464;-66
2022/08/06 02:01:06;;;;;;;2.70;2.50;;;26.40;62.40;;;;;;5002813;28;20800;-66
2022/08/06 02:03:31;;;;;;;3.38;2.90;;;26.40;62.40;;;;;;4983975;28;20398;-66
2022/08/06 02:05:59;;;;;;;2.83;2.40;;;26.40;62.40;;;;;;4986154;28;20451;-67
2022/08/06 02:08:30;;;;;;;3.40;2.70;;;26.40;62.20;;;;;;5000317;28;20890;-67
2022/08/06 02:10:57;;;;;;;2.60;2.40;;;26.40;62.20;;;;;;5000770;28;20521;-67
2022/08/06 02:13:25;;;;;;;2.72;2.53;;;26.40;62.20;;;;;;5000277;28;20514;-68
2022/08/06 02:15:53;;;;;;;2.88;2.60;;;26.40;62.20;;;;;;5000790;28;21219;-68
2022/08/06 02:18:22;;;;;;;2.70;2.50;;;26.40;62.30;;;;;;4999564;28;20918;-67
2022/08/06 02:20:51;;;;;;;4.22;2.75;;;26.40;62.30;;;;;;5002516;28;20432;-66
2022/08/06 02:23:21;;;;;;;11.43;3.05;;;26.40;62.20;;;;;;5000513;28;20410;-66
2022/08/06 02:25:49;;;;;;;10.50;2.90;;;26.40;62.10;;;;;;5000286;28;20387;-66
2022/08/06 02:28:18;;;;;;;10.63;2.92;;;26.40;62.00;;;;;;5001192;28;20412;-66
2022/08/06 02:30:47;;;;;;;9.07;2.90;;;26.40;61.90;;;;;;5002176;28;20385;-66
2022/08/06 02:33:13;;;;;;;4.30;2.50;;;26.40;61.90;;;;;;4983302;28;20406;-68
2022/08/06 02:35:57;;;;;;;4.50;2.70;;;26.40;61.90;;;;;;5000816;28;20491;-67
2022/08/06 02:38:28;;;;;;;5.07;2.97;;;26.40;61.90;;;;;;5001771;28;20447;-67
2022/08/06 02:41:00;;;;;;;4.60;2.80;;;26.40;61.90;;;;;;5002209;28;20476;-66
2022/08/06 02:43:35;;;;;;;6.80;2.90;;;26.40;61.90;;;;;;5001821;28;20393;-67
2022/08/06 02:46:26;;;;;;;4.13;2.75;;;26.40;61.90;;;;;;5001752;28;20414;-66
2022/08/06 02:48:58;;;;;;;4.47;2.63;;;26.30;61.80;;;;;;5002090;28;20458;-66
2022/08/06 02:51:34;;;;;;;3.85;2.70;;;26.40;61.80;;;;;;5007448;28;20397;-66
2022/08/06 02:54:07;;;;;;;4.63;2.80;;;26.30;61.80;;;;;;5012060;28;20920;-66
2022/08/06 02:56:36;;;;;;;5.63;2.88;;;26.40;61.90;;;;;;5011693;28;20385;-66
2022/08/06 02:59:03;;;;;;;7.15;2.92;;;26.30;61.90;;;;;;5011647;28;20400;-66
2022/08/06 03:01:33;;;;;;;8.05;3.13;;;26.30;61.90;;;;;;5011979;28;20388;-66
2022/08/06 03:04:01;;;;;;;5.28;2.95;;;26.30;62.00;;;;;;4993994;28;20390;-66
2022/08/06 03:06:32;;;;;;;8.00;2.92;;;26.30;62.10;;;;;;5011197;28;20392;-66
2022/08/06 03:09:00;;;;;;;6.10;2.90;;;26.30;62.00;;;;;;4994256;28;20475;-66
2022/08/06 03:11:30;;;;;;;4.95;2.72;;;26.30;62.00;;;;;;5011809;28;20800;-66
2022/08/06 03:13:57;;;;;;;4.88;3.00;;;26.30;62.00;;;;;;5011512;28;20478;-66
2022/08/06 03:16:25;;;;;;;3.75;2.45;;;26.30;62.00;;;;;;5011344;28;20385;-66
2022/08/06 03:18:53;;;;;;;3.25;2.83;;;26.30;62.00;;;;;;5011692;28;20396;-66
2022/08/06 03:21:22;;;;;;;4.90;3.00;;;26.30;62.00;;;;;;5010437;28;20483;-67
2022/08/06 03:23:49;;;;;;;4.57;2.90;;;26.30;62.00;;;;;;5011766;28;20892;-67
2022/08/06 03:26:16;;;;;;;3.60;2.72;;;26.30;62.10;;;;;;5011269;28;20397;-66
2022/08/06 03:28:43;;;;;;;3.67;2.70;;;26.30;62.00;;;;;;5010566;28;20411;-66
2022/08/06 03:31:10;;;;;;;4.38;2.80;;;26.30;62.00;;;;;;5011051;28;20443;-66
2022/08/06 03:33:36;;;;;;;3.47;2.60;;;26.30;62.00;;;;;;5010273;28;20428;-66
2022/08/06 03:36:04;;;;;;;4.50;3.03;;;26.30;62.10;;;;;;5011405;28;20396;-67
2022/08/06 03:38:37;;;;;;;3.70;2.75;;;26.30;62.10;;;;;;5011114;28;20401;-66
2022/08/06 03:41:02;;;;;;;3.67;2.72;;;26.30;62.10;;;;;;5011227;28;20400;-66
2022/08/06 03:43:29;;;;;;;4.70;2.65;;;26.30;62.10;;;;;;5011195;28;20381;-66
2022/08/06 03:46:01;;;;;;;13.40;3.10;;;26.30;62.20;;;;;;5011152;28;20401;-67
2022/08/06 03:48:32;;;;;;;9.48;2.90;;;26.30;62.20;;;;;;5011063;28;20894;-66
2022/08/06 03:51:01;;;;;;;8.13;2.80;;;26.20;62.20;;;;;;5011158;28;20396;-67
2022/08/06 03:53:28;;;;;;;6.13;2.67;;;26.30;62.30;;;;;;5011330;28;20405;-66
2022/08/06 03:55:57;;;;;;;6.13;2.50;;;26.30;62.30;;;;;;5011392;28;20408;-66
2022/08/06 03:58:24;;;;;;;7.67;3.10;;;26.20;62.30;;;;;;5011184;28;20466;-66
2022/08/06 04:01:04;;;;;;;6.00;3.00;;;26.20;62.30;;;;;;5011387;28;20396;-67
2022/08/06 04:03:31;;;;;;;4.85;2.90;;;26.20;62.30;;;;;;5011466;28;20438;-66
2022/08/06 04:05:58;;;;;;;4.43;2.90;;;26.30;62.40;;;;;;5011153;28;20429;-66
2022/08/06 04:08:25;;;;;;;4.80;2.85;;;26.20;62.20;;;;;;5011111;28;20399;-66
2022/08/06 04:10:51;;;;;;;4.93;2.92;;;26.20;62.30;;;;;;4993690;28;20761;-66
2022/08/06 04:13:21;;;;;;;3.97;2.90;;;26.20;62.20;;;;;;5011175;28;20912;-67
2022/08/06 04:15:47;;;;;;;4.00;2.95;;;26.20;62.20;;;;;;5011237;28;20389;-66
2022/08/06 04:18:19;;;;;;;5.05;2.78;;;26.20;62.20;;;;;;5011210;28;20857;-66
2022/08/06 04:20:47;;;;;;;5.32;2.80;;;26.20;62.20;;;;;;5009783;28;20484;-66
2022/08/06 04:23:14;;;;;;;5.90;2.97;;;26.20;62.20;;;;;;5011129;28;20498;-66
2022/08/06 04:25:43;;;;;;;5.22;3.03;;;26.20;62.20;;;;;;5011231;28;20393;-66
2022/08/06 04:28:10;;;;;;;4.57;3.17;;;26.20;62.30;;;;;;5010941;28;20808;-67
2022/08/06 04:30:38;;;;;;;3.97;3.17;;;26.20;62.30;;;;;;5010394;28;20464;-66
2022/08/06 04:33:06;;;;;;;4.35;2.80;;;26.20;62.30;;;;;;4993245;28;20413;-66
2022/08/06 04:35:33;;;;;;;3.63;2.70;;;26.20;62.30;;;;;;5011099;28;20397;-66
2022/08/06 04:38:00;;;;;;;4.50;2.90;;;26.20;62.30;;;;;;5010761;28;20416;-66
2022/08/06 04:40:26;;;;;;;3.75;2.95;;;26.20;62.30;;;;;;5013928;28;20436;-66
2022/08/06 04:42:52;;;;;;;4.60;2.97;;;26.20;62.30;;;;;;4996928;28;20385;-67
2022/08/06 04:45:18;;;;;;;4.22;3.20;;;26.20;62.30;;;;;;5013700;28;20404;-66
2022/08/06 04:47:45;;;;;;;11.00;3.30;;;26.20;62.30;;;;;;5014104;28;20487;-66
2022/08/06 04:50:11;;;;;;;8.60;3.00;;;26.20;62.40;;;;;;5014446;28;20399;-66
2022/08/06 04:52:37;;;;;;;6.70;3.07;;;26.20;62.40;;;;;;5013765;28;20389;-66
2022/08/06 04:55:03;;;;;;;8.50;3.50;;;26.20;62.50;;;;;;5014102;28;20991;-67
2022/08/06 04:57:29;;;;;;;7.68;3.10;;;26.20;62.40;;;;;;5014250;28;20452;-66
2022/08/06 04:59:54;;;;;;;5.13;3.47;;;26.20;62.60;;;;;;5013849;28;20504;-67
2022/08/06 05:02:20;;;;;;;7.77;3.47;;;26.20;62.40;;;;;;5014047;28;20392;-66
2022/08/06 05:04:52;;;;;;;8.90;3.50;;;26.20;62.30;;;;;;5013647;28;20486;-66
2022/08/06 05:07:23;;;;;;;6.50;3.85;;;26.10;62.20;;;;;;4995792;28;20401;-67
2022/08/06 05:09:50;;;;;;;5.57;3.67;;;26.10;62.60;;;;;;5013686;28;20482;-67
2022/08/06 05:12:24;;;;;;;5.22;4.10;;;26.20;62.80;;;;;;5013806;28;20424;-66
2022/08/06 05:15:16;;;;;;;5.03;3.72;;;26.20;62.70;;;;;;5013234;28;20428;-67
2022/08/06 05:17:48;;;;;;;6.32;3.70;;;26.20;62.70;;;;;;5012592;28;21052;-66
2022/08/06 05:20:19;;;;;;;4.13;3.47;;;26.20;62.50;;;;;;5013431;28;20385;-66
2022/08/06 05:22:49;;;;;;;5.82;3.60;;;26.20;62.50;;;;;;5006912;28;20387;-67
2022/08/06 05:25:15;;;;;;;4.60;3.80;;;26.10;62.30;;;;;;4980468;28;20409;-67
2022/08/06 05:27:41;;;;;;;5.10;3.53;;;26.20;62.30;;;;;;4992734;28;20429;-66
2022/08/06 05:30:08;;;;;;;5.35;3.58;;;26.20;62.00;;;;;;4999076;28;20917;-66
2022/08/06 05:32:44;;;;;;;5.60;3.70;;;26.10;62.00;;;;;;5001202;28;20470;-66
2022/08/06 05:35:10;;;;;;;6.47;3.90;;;26.10;61.60;;;;;;5005350;28;20413;-66
2022/08/06 05:37:37;;;;;;;5.95;3.55;;;26.10;61.50;;;;;;5013332;28;20443;-66
2022/08/06 05:40:04;;;;;;;4.88;3.42;;;26.10;61.50;;;;;;5008233;28;20398;-66
2022/08/06 05:42:30;;;;;;;4.75;3.47;;;26.10;61.50;;;;;;5002824;28;20386;-66
2022/08/06 05:44:56;;;;;;;5.57;3.43;;;26.10;61.10;;;;;;5002054;28;20407;-66
2022/08/06 05:47:25;;;;;;;5.07;3.30;;;26.10;61.40;;;;;;5006706;28;20395;-67
2022/08/06 05:50:15;;;;;;;4.25;3.50;;;26.10;61.40;;;;;;4988489;28;20427;-66
2022/08/06 05:52:54;;;;;;;5.05;3.40;;;26.10;61.10;;;;;;5012618;28;20400;-67
2022/08/06 05:55:20;;;;;;;4.13;3.10;;;26.00;60.50;;;;;;5012842;28;20404;-66
2022/08/06 05:58:02;;;;;;;6.68;3.30;;;26.00;60.50;;;;;;4995506;28;20477;-67
2022/08/06 06:00:32;;;;;;;8.35;3.55;;;26.00;60.40;;;;;;5012553;28;20856;-67
2022/08/06 06:02:59;;;;;;;6.20;3.20;;;26.00;60.70;;;;;;4995347;28;20472;-67
2022/08/06 06:05:26;;;;;;;6.05;3.20;;;26.00;60.50;;;;;;5011689;28;20959;-66
2022/08/06 06:07:54;;;;;;;5.47;2.90;;;26.00;60.20;;;;;;5012909;28;20428;-66
2022/08/06 06:10:22;;;;;;;7.30;3.30;;;26.00;60.40;;;;;;5012900;28;20762;-66
2022/08/06 06:12:48;;;;;;;5.88;3.15;;;26.00;60.40;;;;;;5012262;28;20444;-66
2022/08/06 06:15:15;;;;;;;5.85;3.10;;;26.00;60.40;;;;;;5012674;28;20404;-67
2022/08/06 06:18:03;;;;;;;5.00;3.30;;;26.00;60.50;;;;;;5012728;28;20381;-67
2022/08/06 06:20:40;;;;;;;6.72;3.15;;;26.00;60.30;;;;;;4994887;28;20424;-67
2022/08/06 06:23:11;;;;;;;7.50;3.10;;;26.00;60.50;;;;;;4994983;28;20397;-67
2022/08/06 06:25:46;;;;;;;5.05;3.03;;;26.00;60.50;;;;;;5012666;28;20436;-67
2022/08/06 06:28:15;;;;;;;6.78;3.33;;;26.00;60.50;;;;;;5012539;28;20400;-66
2022/08/06 06:30:50;;;;;;;6.68;3.20;;;26.00;59.90;;;;;;5012112;28;20895;-66
2022/08/06 06:33:27;;;;;;;6.53;3.30;;;26.00;60.20;;;;;;5012328;28;20436;-67
2022/08/06 06:36:04;;;;;;;5.38;3.08;;;25.90;59.50;;;;;;5012280;28;20417;-67
2022/08/06 06:38:35;;;;;;;3.67;3.28;;;25.80;59.60;;;;;;5012228;28;20876;-66
2022/08/06 06:41:08;;;;;;;3.40;2.95;;;25.70;60.20;;;;;;4994733;28;20563;-67
2022/08/06 06:43:45;;;;;;;5.30;3.10;;;25.60;59.60;;;;;;4994694;28;20401;-67
2022/08/06 06:46:19;;;;;;;4.38;3.08;;;25.60;59.80;;;;;;5011995;28;20880;-67
2022/08/06 06:48:49;;;;;;;3.80;3.20;;;25.50;59.70;;;;;;4994058;28;20873;-67
2022/08/06 06:51:33;;;;;;;4.00;3.25;;;25.50;60.10;;;;;;4994335;28;20781;-67
2022/08/06 06:53:59;;;;;;;3.90;3.22;;;25.50;60.20;;;;;;5011711;28;20428;-67
2022/08/06 06:56:45;;;;;;;3.67;3.00;;;25.50;60.10;;;;;;4994289;28;20466;-67
2022/08/06 06:59:16;;;;;;;4.20;3.20;;;25.40;60.40;;;;;;4994284;28;20404;-66
2022/08/06 07:01:44;;;;;;;4.53;3.40;;;25.40;61.00;;;;;;5011363;28;20898;-69
2022/08/06 07:04:14;;;;;;;4.35;3.47;;;25.40;61.20;;;;;;5012217;28;20463;-67
2022/08/06 07:06:41;;;;;;;3.70;3.27;;;25.40;61.00;;;;;;4993796;28;20399;-66
2022/08/06 07:09:10;;;;;;;4.27;3.33;;;25.40;61.00;;;;;;5011817;28;20579;-67
2022/08/06 07:11:38;;;;;;;4.17;3.23;;;25.30;60.90;;;;;;5011892;28;20408;-67
2022/08/06 07:14:04;;;;;;;3.75;3.30;;;25.30;61.00;;;;;;4993630;28;20421;-67
2022/08/06 07:16:33;;;;;;;3.53;3.20;;;25.30;60.80;;;;;;5011577;28;20385;-67
2022/08/06 07:19:01;;;;;;;3.95;3.50;;;25.20;60.50;;;;;;5011357;28;20730;-67
2022/08/06 07:21:27;;;;;;;3.58;3.13;;;25.20;60.80;;;;;;5011504;28;20451;-68
2022/08/06 07:23:53;;;;;;;3.83;3.42;;;25.20;60.90;;;;;;5010265;28;20427;-67
2022/08/06 07:26:22;;;;;;;3.63;3.20;;;25.20;61.00;;;;;;5011694;28;20467;-67
2022/08/06 07:28:49;;;;;;;3.47;3.10;;;25.20;61.00;;;;;;5011137;28;20487;-67
2022/08/06 07:31:15;;;;;;;4.55;3.20;;;25.20;61.00;;;;;;5011654;28;20389;-67
2022/08/06 07:33:44;;;;;;;4.00;3.10;;;25.20;61.00;;;;;;4993936;28;20416;-66
2022/08/06 07:36:10;;;;;;;3.85;3.30;;;25.10;61.10;;;;;;5011330;28;20876;-67
2022/08/06 07:38:41;;;;;;;4.45;2.95;;;25.10;61.20;;;;;;5011145;28;20488;-66
2022/08/06 07:41:08;;;;;;;4.07;3.08;;;25.20;61.20;;;;;;5011538;28;20876;-66
2022/08/06 07:43:40;;;;;;;5.43;2.90;;;25.30;60.80;;;;;;5011622;28;20397;-66
2022/08/06 07:46:07;;;;;;;5.45;3.40;;;25.30;60.80;;;;;;5011029;28;20396;-67
2022/08/06 07:48:38;;;;;;;5.32;3.17;;;25.20;61.00;;;;;;5011330;28;20415;-66
2022/08/06 07:51:05;;;;;;;4.03;3.25;;;25.20;61.20;;;;;;5011490;28;20384;-66
2022/08/06 07:53:37;;;;;;;4.18;3.42;;;25.10;61.40;;;;;;5011360;28;20400;-66
2022/08/06 07:56:05;;;;;;;3.72;3.20;;;25.10;61.70;;;;;;5011366;28;20405;-66
2022/08/06 07:58:34;;;;;;;4.28;3.40;;;25.10;61.80;;;;;;5011454;28;20872;-66
2022/08/06 08:01:01;;;;;;;3.63;3.00;;;25.00;62.10;;;;;;5011150;28;20576;-67
2022/08/06 08:06:22;;;;;;;3.75;3.10;;;25.00;62.70;;;;;;5011550;28;20396;-67
2022/08/06 08:09:14;;;;;;;3.80;3.10;;;25.00;62.80;;;;;;5010651;28;20395;-70
2022/08/06 08:11:42;;;;;;;3.38;3.08;;;24.90;62.60;;;;;;5002791;28;20408;-68
2022/08/06 08:14:10;;;;;;;5.23;3.50;;;25.00;62.70;;;;;;5014112;28;20431;-69
2022/08/06 08:16:37;;;;;;;4.57;3.20;;;24.90;62.70;;;;;;5014764;28;20934;-68
2022/08/06 08:19:18;;;;;;;4.50;2.95;;;24.90;62.80;;;;;;5014877;28;20388;-69
2022/08/06 08:21:43;;;;;;;4.05;3.03;;;24.90;62.80;;;;;;5014952;28;20428;-66
2022/08/06 08:24:10;;;;;;;4.10;3.10;;;24.90;63.00;;;;;;5014821;28;20381;-69
2022/08/06 08:26:36;;;;;;;6.70;3.30;;;24.90;63.00;;;;;;5014492;28;20901;-66
2022/08/06 08:29:01;;;;;;;5.47;3.00;;;24.90;63.20;;;;;;5014457;28;20483;-66
2022/08/06 08:31:27;;;;;;;4.80;3.63;;;24.80;63.20;;;;;;5014632;28;20424;-67
2022/08/06 08:33:52;;;;;;;4.80;3.47;;;24.90;63.20;;;;;;5014488;28;20519;-66
2022/08/06 08:36:20;;;;;;;4.95;3.58;;;24.80;63.30;;;;;;5014392;28;20424;-70
2022/08/06 08:38:46;;;;;;;5.65;3.28;;;24.80;63.20;;;;;;5014102;28;20389;-66
2022/08/06 08:41:18;;;;;;;9.63;3.75;;;24.90;63.40;;;;;;5014518;28;20401;-68
2022/08/06 08:43:52;;;;;;;17.15;4.13;;;24.90;64.20;;;;;;4996629;28;20401;-66
2022/08/06 08:46:19;;;;;;;8.90;3.80;;;24.90;64.30;;;;;;5014364;28;20388;-66
2022/08/06 08:48:45;;;;;;;8.35;3.53;;;24.80;64.20;;;;;;5014002;28;20401;-67
2022/08/06 08:51:12;;;;;;;8.27;3.70;;;24.90;64.20;;;;;;5013927;28;20429;-66
2022/08/06 08:53:47;;;;;;;4.35;3.20;;;24.80;64.10;;;;;;5014242;28;20455;-66
2022/08/06 08:56:14;;;;;;;5.85;3.35;;;24.80;64.00;;;;;;5014192;28;20886;-66
2022/08/06 08:58:41;;;;;;;4.90;3.25;;;24.80;64.00;;;;;;5012708;28;20400;-66
2022/08/06 09:01:08;;;;;;;4.57;3.20;;;24.80;64.10;;;;;;5014101;28;20385;-67
2022/08/06 09:03:36;;;;;;;4.50;3.03;;;24.80;64.40;;;;;;5013960;28;20407;-66
2022/08/06 09:06:03;;;;;;;3.65;2.95;;;24.80;64.60;;;;;;5013911;28;20919;-66
2022/08/06 09:08:31;;;;;;;3.92;3.35;;;24.80;64.60;;;;;;5013899;28;20816;-66
2022/08/06 09:10:57;;;;;;;3.60;3.10;;;24.80;64.80;;;;;;5013445;28;20396;-66
2022/08/06 09:13:28;;;;;;;3.40;3.00;;;24.80;65.00;;;;;;5013744;28;20416;-66
2022/08/06 09:15:55;;;;;;;5.88;4.40;;;24.70;64.90;;;;;;4996157;28;20492;-67
2022/08/06 09:18:23;;;;;;;7.57;4.85;;;24.70;65.10;;;;;;4996162;28;20400;-67
2022/08/06 09:20:49;;;;;;;8.82;5.75;;;24.70;65.70;;;;;;5013301;28;20397;-67
2022/08/06 09:23:16;;;;;;;8.60;6.70;;;24.60;65.70;;;;;;5013379;28;20423;-66
2022/08/06 09:25:50;;;;;;;9.65;6.70;;;24.60;65.80;;;;;;5012865;28;20397;-67
2022/08/06 09:28:31;;;;;;;10.07;7.00;;;24.60;65.80;;;;;;5013626;28;20393;-67
2022/08/06 09:31:12;;;;;;;9.38;6.97;;;24.70;65.70;;;;;;5013040;28;20416;-67
2022/08/06 09:33:40;;;;;;;8.88;6.90;;;24.70;65.50;;;;;;5013511;28;20512;-67
2022/08/06 09:36:07;;;;;;;10.23;7.80;;;24.70;65.50;;;;;;5013081;28;20396;-67
2022/08/06 09:38:50;;;;;;;9.50;7.68;;;24.70;66.30;;;;;;5013406;28;20393;-66
2022/08/06 09:41:17;;;;;;;13.77;8.05;;;24.80;65.70;;;;;;4996600;28;20385;-66
2022/08/06 09:43:49;;;;;;;12.73;6.90;;;24.80;65.60;;;;;;5012230;28;20411;-67
2022/08/06 09:46:17;;;;;;;11.70;7.00;;;24.80;65.20;;;;;;4992685;28;20409;-66
2022/08/06 09:48:59;;;;;;;10.25;6.93;;;24.80;65.10;;;;;;4992839;28;20390;-66
2022/08/06 09:51:25;;;;;;;9.88;6.70;;;24.90;64.70;;;;;;4996625;28;20410;-66
2022/08/06 09:53:56;;;;;;;8.20;6.03;;;24.90;64.60;;;;;;5012414;28;20491;-66
2022/08/06 09:56:22;;;;;;;9.07;6.63;;;24.90;64.30;;;;;;5012809;28;20853;-67
2022/08/06 09:58:49;;;;;;;8.65;5.90;;;25.00;64.10;;;;;;5012352;28;20431;-68
2022/08/06 10:01:18;;;;;;;7.20;5.25;;;25.00;64.00;;;;;;5012605;28;20392;-67
2022/08/06 10:03:44;;;;;;;7.07;5.60;;;25.00;63.90;;;;;;5012045;28;20395;-66
2022/08/06 10:06:13;;;;;;;6.68;5.82;;;25.00;63.70;;;;;;5012680;28;20927;-67
2022/08/06 10:08:40;;;;;;;6.88;5.72;;;25.00;63.60;;;;;;5012391;28;20397;-66
2022/08/06 10:11:07;;;;;;;7.30;5.65;;;25.00;63.50;;;;;;5012415;28;20424;-69
2022/08/06 10:13:34;;;;;;;7.15;5.80;;;25.10;63.50;;;;;;4995205;28;20413;-67
2022/08/06 10:16:14;;;;;;;6.47;5.50;;;25.10;63.50;;;;;;5008932;28;20398;-66
2022/08/06 10:18:42;;;;;;;6.13;5.40;;;25.10;63.40;;;;;;5002243;28;20391;-67
2022/08/06 10:21:16;;;;;;;6.40;5.53;;;25.10;63.30;;;;;;5002274;28;20924;-68
2022/08/06 10:23:48;;;;;;;6.53;5.53;;;25.10;63.30;;;;;;5001084;28;20405;-67
2022/08/06 10:26:18;;;;;;;6.35;5.45;;;25.10;63.20;;;;;;4983095;28;20396;-68
2022/08/06 10:28:45;;;;;;;5.97;5.03;;;25.10;63.10;;;;;;5002130;28;20423;-70
2022/08/06 10:31:13;;;;;;;5.70;5.10;;;25.10;63.00;;;;;;4983332;28;20422;-70
2022/08/06 10:33:54;;;;;;;6.28;5.30;;;25.10;63.00;;;;;;4993176;28;20437;-71
2022/08/06 10:36:25;;;;;;;6.07;5.30;;;25.20;63.00;;;;;;5001112;28;20456;-66
2022/08/06 10:38:53;;;;;;;5.95;5.03;;;25.20;63.50;;;;;;5001616;28;20438;-67
2022/08/06 10:41:20;;;;;;;6.05;5.10;;;25.20;62.90;;;;;;5001825;28;20994;-67
2022/08/06 10:43:46;;;;;;;5.70;4.80;;;25.20;62.90;;;;;;4987385;28;20389;-67
2022/08/06 10:46:15;;;;;;;5.95;5.25;;;25.20;62.80;;;;;;5001159;28;20393;-67
2022/08/06 10:48:42;;;;;;;14.13;5.72;;;25.20;62.80;;;;;;5001726;28;20731;-68
2022/08/06 10:51:10;;;;;;;9.93;5.27;;;25.20;63.00;;;;;;5001582;28;20404;-67
2022/08/06 10:53:38;;;;;;;9.95;4.80;;;25.30;64.10;;;;;;5001044;28;20552;-67
2022/08/06 10:56:07;;;;;;;7.05;5.57;;;25.40;63.00;;;;;;4983965;28;20460;-71
2022/08/06 10:58:34;;;;;;;8.55;5.78;;;25.40;62.90;;;;;;5000227;28;20401;-67
2022/08/06 11:01:09;;;;;;;7.50;5.40;;;25.30;62.70;;;;;;5000687;28;20397;-67
2022/08/06 11:03:46;;;;;;;6.82;5.32;;;25.30;62.40;;;;;;5002275;28;20945;-67
2022/08/06 11:06:19;;;;;;;7.20;5.03;;;25.30;62.30;;;;;;5006539;28;20409;-67
2022/08/06 11:09:02;;;;;;;8.40;4.93;;;25.30;62.30;;;;;;4999421;28;20455;-67
2022/08/06 11:11:41;;;;;;;9.23;5.10;;;25.30;62.30;;;;;;5000194;28;20777;-67
2022/08/06 11:14:11;;;;;;;8.93;5.53;;;25.30;62.30;;;;;;4999579;28;20426;-67
2022/08/06 11:16:37;;;;;;;7.38;5.70;;;25.30;62.00;;;;;;5002301;28;20393;-66
2022/08/06 11:19:06;;;;;;;10.75;5.63;;;25.20;62.20;;;;;;5003222;28;20402;-67
2022/08/06 11:21:36;;;;;;;11.68;5.97;;;25.20;62.10;;;;;;5003203;28;20392;-67
2022/08/06 11:24:03;;;;;;;8.43;5.88;;;25.20;62.10;;;;;;5009169;28;20439;-67
2022/08/06 11:26:37;;;;;;;9.00;6.15;;;25.30;62.20;;;;;;5009897;28;20523;-67
2022/08/06 11:29:05;;;;;;;7.95;5.72;;;25.20;61.90;;;;;;5002052;28;20413;-68
2022/08/06 11:31:36;;;;;;;9.35;5.80;;;25.30;62.00;;;;;;5002531;28;20392;-68
2022/08/06 11:34:09;;;;;;;9.10;5.95;;;25.30;62.00;;;;;;4999183;28;20942;-66
2022/08/06 11:36:47;;;;;;;8.50;5.80;;;25.30;62.00;;;;;;4997710;28;20840;-68
2022/08/06 11:39:13;;;;;;;10.65;5.63;;;25.20;61.70;;;;;;5000216;28;20395;-67
2022/08/06 11:41:56;;;;;;;8.52;5.78;;;25.30;62.00;;;;;;5006072;28;20401;-69
2022/08/06 11:44:31;;;;;;;10.95;5.95;;;25.20;61.90;;;;;;5003132;28;20392;-68
2022/08/06 11:47:12;;;;;;;10.23;5.30;;;25.20;62.10;;;;;;5001902;28;20397;-68
2022/08/06 11:49:45;;;;;;;9.43;5.35;;;25.30;62.70;;;;;;5004817;28;20870;-68
2022/08/06 11:52:43;;;;;;;8.43;5.10;;;25.30;63.30;;;;;;5004114;28;20399;-67
2022/08/06 11:55:11;;;;;;;9.95;5.25;;;25.30;63.70;;;;;;4968836;28;20458;-67
2022/08/06 11:57:40;;;;;;;11.00;4.85;;;25.30;64.10;;;;;;5004851;28;20870;-67
2022/08/06 12:00:10;;;;;;;8.98;4.40;;;25.30;63.10;;;;;;5002865;28;20387;-68
2022/08/06 12:02:41;;;;;;;9.05;4.70;;;25.30;63.30;;;;;;5003997;28;20528;-68
2022/08/06 12:05:13;;;;;;;6.93;4.50;;;25.30;63.10;;;;;;5004621;28;20471;-67
2022/08/06 12:07:38;;;;;;;16.70;6.73;;;25.30;63.30;;;;;;5002408;28;20393;-69
2022/08/06 12:10:04;;;;;;;25.15;9.68;;;25.30;63.60;;;;;;5004884;28;20399;-67
2022/08/06 12:12:32;;;;;;;17.97;7.53;;;25.30;63.90;;;;;;5003323;28;20395;-70
2022/08/06 12:15:01;;;;;;;18.50;6.35;;;25.30;64.70;;;;;;4985023;28;20420;-68
2022/08/06 12:17:28;;;;;;;18.02;6.30;;;25.30;65.70;;;;;;5004912;28;20409;-69
2022/08/06 12:19:57;;;;;;;17.02;6.32;;;25.30;65.40;;;;;;5003881;28;20813;-67
2022/08/06 12:22:23;;;;;;;12.02;5.57;;;25.30;64.90;;;;;;5002616;28;20393;-67
2022/08/06 12:24:54;;;;;;;13.82;4.95;;;25.30;64.60;;;;;;5004097;28;20423;-67
2022/08/06 12:27:21;;;;;;;8.30;4.85;;;25.30;65.50;;;;;;5004566;28;20485;-67
2022/08/06 12:29:47;;;;;;;8.52;4.60;;;25.30;63.60;;;;;;5003451;28;20772;-67
2022/08/06 12:32:33;;;;;;;9.07;4.22;;;25.30;63.50;;;;;;5003573;28;20406;-68
2022/08/06 12:35:08;;;;;;;11.00;4.68;;;25.30;64.30;;;;;;5002371;28;20425;-67
2022/08/06 12:37:52;;;;;;;10.48;4.60;;;25.30;65.60;;;;;;5004290;28;20409;-67
2022/08/06 12:40:23;;;;;;;10.13;4.50;;;25.40;67.30;;;;;;5004548;28;20465;-68
2022/08/06 12:42:50;;;;;;;6.07;4.10;;;25.40;67.60;;;;;;5002950;28;21125;-70
2022/08/06 12:45:26;;;;;;;7.38;3.78;;;25.40;67.10;;;;;;5000909;28;20397;-67
2022/08/06 12:48:10;;;;;;;9.23;4.10;;;25.40;66.60;;;;;;5004165;28;20463;-67
2022/08/06 12:50:41;;;;;;;7.80;3.75;;;25.40;65.70;;;;;;5006270;28;20390;-67
2022/08/06 12:53:12;;;;;;;7.22;4.40;;;25.40;65.20;;;;;;5003829;28;20920;-67
2022/08/06 12:55:55;;;;;;;9.35;4.50;;;25.30;66.00;;;;;;5003653;28;20409;-67
2022/08/06 12:58:29;;;;;;;10.10;4.13;;;25.30;66.60;;;;;;5003988;28;20411;-68
2022/08/06 13:00:58;;;;;;;11.65;4.10;;;25.30;65.70;;;;;;5002337;28;20393;-68
2022/08/06 13:03:25;;;;;;;11.90;4.47;;;25.40;66.30;;;;;;4986668;28;20936;-68